sensor_id;sensor_type;location;lat;lon;timestamp;pressure;altitude;pressure_sealevel;temperature;humidity
20019;BME280;10170;42.502;26.526;2023-04-26T00:02:15;98613.16;;;12.94;100.00
20019;BME280;10170;42.502;26.526;2023-04-26T00:04:43;98621.00;;;12.84;100.00
20019;BME280;10170;42.502;26.526;2023-04-26T00:07:11;98622.06;;;12.83;100.00
20019;BME280;10170;42.502;26.526;2023-04-26T00:09:39;98614.47;;;12.74;100.00
20019;BME280;10170;42.502;26.526;2023-04-26T00:12:07;98615.28;;;12.75;100.00
20019;BME280;10170;42.502;26.526;2023-04-26T00:14:34;98617.25;;;12.63;100.00
20019;BME280;10170;42.502;26.526;2023-04-26T00:17:00;98615.78;;;12.55;100.00
20019;BME280;10170;42.502;26.526;2023-04-26T00:19:29;98625.88;;;12.53;100.00
20019;BME280;10170;42.502;26.526;2023-04-26T00:21:57;98617.94;;;12.58;100.00
20019;BME280;10170;42.502;26.526;2023-04-26T00:24:24;98627.91;;;12.63;100.00
20019;BME280;10170;42.502;26.526;2023-04-26T00:26:54;98631.84;;;12.60;100.00
20019;BME280;10170;42.502;26.526;2023-04-26T00:29:21;98630.31;;;12.64;100.00
20019;BME280;10170;42.502;26.526;2023-04-26T00:31:48;98632.75;;;12.66;100.00
20019;BME280;10170;42.502;26.526;2023-04-26T00:34:15;98628.28;;;12.71;100.00
20019;BME280;10170;42.502;26.526;2023-04-26T00:36:42;98622.47;;;12.74;100.00
20019;BME280;10170;42.502;26.526;2023-04-26T00:39:08;98632.59;;;12.73;100.00
20019;BME280;10170;42.502;26.526;2023-04-26T00:41:35;98626.44;;;12.72;100.00
20019;BME280;10170;42.502;26.526;2023-04-26T00:44:03;98629.50;;;12.64;100.00
20019;BME280;10170;42.502;26.526;2023-04-26T00:46:29;98623.78;;;12.55;100.00
20019;BME280;10170;42.502;26.526;2023-04-26T00:48:56;98620.53;;;12.53;100.00
20019;BME280;10170;42.502;26.526;2023-04-26T00:51:23;98580.16;;;12.12;100.00
20019;BME280;10170;42.502;26.526;2023-04-26T00:53:50;98615.31;;;12.42;100.00
20019;BME280;10170;42.502;26.526;2023-04-26T00:56:16;98618.06;;;12.47;100.00
20019;BME280;10170;42.502;26.526;2023-04-26T00:58:44;98615.56;;;12.40;100.00
20019;BME280;10170;42.502;26.526;2023-04-26T01:01:11;98617.09;;;12.36;100.00
20019;BME280;10170;42.502;26.526;2023-04-26T01:03:38;98603.09;;;12.13;100.00
20019;BME280;10170;42.502;26.526;2023-04-26T01:06:06;98613.25;;;11.99;100.00
20019;BME280;10170;42.502;26.526;2023-04-26T01:08:33;98611.31;;;11.95;100.00
20019;BME280;10170;42.502;26.526;2023-04-26T01:10:59;98613.22;;;11.83;100.00
20019;BME280;10170;42.502;26.526;2023-04-26T01:13:27;98593.03;;;11.70;100.00
20019;BME280;10170;42.502;26.526;2023-04-26T01:15:55;98609.91;;;11.64;100.00
20019;BME280;10170;42.502;26.526;2023-04-26T01:18:22;98611.75;;;11.63;100.00
20019;BME280;10170;42.502;26.526;2023-04-26T01:20:49;98608.69;;;11.67;100.00
20019;BME280;10170;42.502;26.526;2023-04-26T01:23:18;98605.75;;;11.68;100.00
20019;BME280;10170;42.502;26.526;2023-04-26T01:25:44;98608.91;;;11.65;100.00
20019;BME280;10170;42.502;26.526;2023-04-26T01:28:11;98607.00;;;11.77;100.00
20019;BME280;10170;42.502;26.526;2023-04-26T01:30:38;98597.81;;;11.85;100.00
20019;BME280;10170;42.502;26.526;2023-04-26T01:33:05;98605.44;;;12.09;100.00
20019;BME280;10170;42.502;26.526;2023-04-26T01:35:32;98603.19;;;12.18;100.00
20019;BME280;10170;42.502;26.526;2023-04-26T01:37:59;98590.41;;;12.20;100.00
20019;BME280;10170;42.502;26.526;2023-04-26T01:40:25;98594.63;;;12.16;100.00
20019;BME280;10170;42.502;26.526;2023-04-26T01:42:52;98588.31;;;12.05;100.00
20019;BME280;10170;42.502;26.526;2023-04-26T01:45:19;98589.75;;;11.96;100.00
20019;BME280;10170;42.502;26.526;2023-04-26T01:47:45;98588.59;;;11.92;100.00
20019;BME280;10170;42.502;26.526;2023-04-26T01:50:12;98582.34;;;11.98;100.00
20019;BME280;10170;42.502;26.526;2023-04-26T01:52:39;98565.63;;;11.86;100.00
20019;BME280;10170;42.502;26.526;2023-04-26T01:55:06;98575.63;;;11.96;100.00
20019;BME280;10170;42.502;26.526;2023-04-26T01:57:33;98572.94;;;11.79;100.00
20019;BME280;10170;42.502;26.526;2023-04-26T02:00:00;98571.72;;;11.70;100.00
20019;BME280;10170;42.502;26.526;2023-04-26T02:02:27;98558.09;;;11.55;100.00
20019;BME280;10170;42.502;26.526;2023-04-26T02:04:54;98571.88;;;11.52;100.00
20019;BME280;10170;42.502;26.526;2023-04-26T02:07:21;98569.34;;;11.45;100.00
20019;BME280;10170;42.502;26.526;2023-04-26T02:09:48;98562.50;;;11.49;100.00
20019;BME280;10170;42.502;26.526;2023-04-26T02:12:15;98576.38;;;11.63;100.00
20019;BME280;10170;42.502;26.526;2023-04-26T02:14:42;98568.72;;;11.67;100.00
20019;BME280;10170;42.502;26.526;2023-04-26T02:17:09;98569.47;;;11.50;100.00
20019;BME280;10170;42.502;26.526;2023-04-26T02:19:36;98572.00;;;11.45;100.00
20019;BME280;10170;42.502;26.526;2023-04-26T02:22:04;98573.41;;;11.48;100.00
20019;BME280;10170;42.502;26.526;2023-04-26T02:24:31;98580.56;;;11.47;100.00
20019;BME280;10170;42.502;26.526;2023-04-26T02:26:59;98571.22;;;11.45;100.00
20019;BME280;10170;42.502;26.526;2023-04-26T02:29:29;98564.66;;;11.36;100.00
20019;BME280;10170;42.502;26.526;2023-04-26T02:32:09;98568.16;;;11.25;100.00
20019;BME280;10170;42.502;26.526;2023-04-26T02:34:36;98574.66;;;11.17;100.00
20019;BME280;10170;42.502;26.526;2023-04-26T02:37:03;98579.16;;;11.17;100.00
20019;BME280;10170;42.502;26.526;2023-04-26T02:39:30;98567.75;;;11.16;100.00
20019;BME280;10170;42.502;26.526;2023-04-26T02:41:57;98578.31;;;11.28;100.00
20019;BME280;10170;42.502;26.526;2023-04-26T02:44:24;98577.75;;;11.26;100.00
20019;BME280;10170;42.502;26.526;2023-04-26T02:46:50;98574.50;;;11.35;100.00
20019;BME280;10170;42.502;26.526;2023-04-26T02:49:17;98574.50;;;11.35;100.00
20019;BME280;10170;42.502;26.526;2023-04-26T02:51:43;98566.56;;;11.52;100.00
20019;BME280;10170;42.502;26.526;2023-04-26T02:54:11;98573.97;;;11.50;100.00
20019;BME280;10170;42.502;26.526;2023-04-26T02:56:37;98569.38;;;11.06;100.00
20019;BME280;10170;42.502;26.526;2023-04-26T02:59:04;98579.06;;;11.12;100.00
20019;BME280;10170;42.502;26.526;2023-04-26T03:01:31;98576.75;;;11.15;100.00
20019;BME280;10170;42.502;26.526;2023-04-26T03:03:58;98567.06;;;11.09;100.00
20019;BME280;10170;42.502;26.526;2023-04-26T03:06:25;98574.91;;;11.16;100.00
20019;BME280;10170;42.502;26.526;2023-04-26T03:08:53;98577.09;;;11.19;100.00
20019;BME280;10170;42.502;26.526;2023-04-26T03:11:20;98576.16;;;11.25;100.00
20019;BME280;10170;42.502;26.526;2023-04-26T03:13:47;98579.13;;;11.40;100.00
20019;BME280;10170;42.502;26.526;2023-04-26T03:16:13;98563.31;;;11.22;100.00
20019;BME280;10170;42.502;26.526;2023-04-26T03:18:41;98563.53;;;11.20;100.00
20019;BME280;10170;42.502;26.526;2023-04-26T03:21:08;98575.22;;;11.31;100.00
20019;BME280;10170;42.502;26.526;2023-04-26T03:23:35;98576.63;;;11.50;100.00
20019;BME280;10170;42.502;26.526;2023-04-26T03:26:01;98573.69;;;11.63;100.00
20019;BME280;10170;42.502;26.526;2023-04-26T03:28:29;98567.84;;;11.49;100.00
20019;BME280;10170;42.502;26.526;2023-04-26T03:30:56;98578.31;;;11.68;100.00
20019;BME280;10170;42.502;26.526;2023-04-26T03:33:22;98573.41;;;11.76;100.00
20019;BME280;10170;42.502;26.526;2023-04-26T03:35:49;98572.72;;;11.81;100.00
20019;BME280;10170;42.502;26.526;2023-04-26T03:38:16;98576.41;;;11.80;100.00
20019;BME280;10170;42.502;26.526;2023-04-26T03:41:12;98563.75;;;11.70;100.00
20019;BME280;10170;42.502;26.526;2023-04-26T03:43:39;98575.38;;;11.81;100.00
20019;BME280;10170;42.502;26.526;2023-04-26T03:46:05;98584.56;;;11.73;100.00
20019;BME280;10170;42.502;26.526;2023-04-26T03:48:32;98585.13;;;11.63;100.00
20019;BME280;10170;42.502;26.526;2023-04-26T03:51:01;98591.28;;;11.64;100.00
20019;BME280;10170;42.502;26.526;2023-04-26T03:53:28;98585.88;;;11.59;100.00
20019;BME280;10170;42.502;26.526;2023-04-26T03:55:55;98592.78;;;11.72;100.00
20019;BME280;10170;42.502;26.526;2023-04-26T03:58:23;98593.13;;;11.75;100.00
20019;BME280;10170;42.502;26.526;2023-04-26T04:00:50;98593.34;;;11.74;100.00
20019;BME280;10170;42.502;26.526;2023-04-26T04:03:17;98602.50;;;11.78;100.00
20019;BME280;10170;42.502;26.526;2023-04-26T04:05:44;98589.75;;;11.96;100.00
20019;BME280;10170;42.502;26.526;2023-04-26T04:08:11;98594.84;;;11.98;100.00
20019;BME280;10170;42.502;26.526;2023-04-26T04:10:38;98590.34;;;12.15;100.00
20019;BME280;10170;42.502;26.526;2023-04-26T04:13:04;98597.38;;;12.04;100.00
20019;BME280;10170;42.502;26.526;2023-04-26T04:15:31;98601.72;;;11.94;100.00
20019;BME280;10170;42.502;26.526;2023-04-26T04:17:58;98599.91;;;11.99;100.00
20019;BME280;10170;42.502;26.526;2023-04-26T04:20:25;98603.00;;;11.91;100.00
20019;BME280;10170;42.502;26.526;2023-04-26T04:22:52;98605.66;;;11.91;100.00
20019;BME280;10170;42.502;26.526;2023-04-26T04:25:18;98607.47;;;12.19;100.00
20019;BME280;10170;42.502;26.526;2023-04-26T04:27:47;98617.22;;;12.30;100.00
20019;BME280;10170;42.502;26.526;2023-04-26T04:30:14;98617.16;;;12.25;100.00
20019;BME280;10170;42.502;26.526;2023-04-26T04:32:41;98618.34;;;12.17;100.00
20019;BME280;10170;42.502;26.526;2023-04-26T04:35:12;98620.88;;;12.24;100.00
20019;BME280;10170;42.502;26.526;2023-04-26T04:37:39;98605.84;;;12.34;100.00
20019;BME280;10170;42.502;26.526;2023-04-26T04:40:07;98625.00;;;12.48;100.00
20019;BME280;10170;42.502;26.526;2023-04-26T04:42:37;98627.00;;;12.41;100.00
20019;BME280;10170;42.502;26.526;2023-04-26T04:45:04;98627.09;;;12.29;100.00
20019;BME280;10170;42.502;26.526;2023-04-26T04:47:31;98625.47;;;12.28;100.00
20019;BME280;10170;42.502;26.526;2023-04-26T04:49:59;98630.75;;;12.40;100.00
20019;BME280;10170;42.502;26.526;2023-04-26T04:52:26;98635.00;;;12.41;100.00
20019;BME280;10170;42.502;26.526;2023-04-26T04:54:52;98626.44;;;12.55;100.00
20019;BME280;10170;42.502;26.526;2023-04-26T04:57:19;98627.25;;;12.56;100.00
20019;BME280;10170;42.502;26.526;2023-04-26T04:59:46;98630.56;;;12.46;100.00
20019;BME280;10170;42.502;26.526;2023-04-26T05:02:13;98615.63;;;12.45;100.00
20019;BME280;10170;42.502;26.526;2023-04-26T05:04:39;98629.66;;;12.24;100.00
20019;BME280;10170;42.502;26.526;2023-04-26T05:07:07;98624.50;;;12.18;100.00
20019;BME280;10170;42.502;26.526;2023-04-26T05:09:34;98626.59;;;12.16;100.00
20019;BME280;10170;42.502;26.526;2023-04-26T05:12:02;98628.75;;;12.02;100.00
20019;BME280;10170;42.502;26.526;2023-04-26T05:14:30;98636.22;;;11.89;100.00
20019;BME280;10170;42.502;26.526;2023-04-26T05:16:56;98636.66;;;11.97;100.00
20019;BME280;10170;42.502;26.526;2023-04-26T05:19:23;98631.34;;;11.97;100.00
20019;BME280;10170;42.502;26.526;2023-04-26T05:21:51;98627.78;;;12.08;100.00
20019;BME280;10170;42.502;26.526;2023-04-26T05:24:17;98632.00;;;12.04;100.00
20019;BME280;10170;42.502;26.526;2023-04-26T05:26:44;98640.56;;;12.06;100.00
20019;BME280;10170;42.502;26.526;2023-04-26T05:29:11;98638.38;;;12.03;100.00
20019;BME280;10170;42.502;26.526;2023-04-26T05:31:38;98636.53;;;12.20;100.00
20019;BME280;10170;42.502;26.526;2023-04-26T05:34:04;98640.00;;;12.04;100.00
20019;BME280;10170;42.502;26.526;2023-04-26T05:36:31;98644.66;;;12.14;100.00
20019;BME280;10170;42.502;26.526;2023-04-26T05:38:58;98644.53;;;12.20;100.00
20019;BME280;10170;42.502;26.526;2023-04-26T05:41:24;98638.78;;;12.12;100.00
20019;BME280;10170;42.502;26.526;2023-04-26T05:43:51;98640.69;;;12.00;100.00
20019;BME280;10170;42.502;26.526;2023-04-26T05:46:18;98611.19;;;11.73;100.00
20019;BME280;10170;42.502;26.526;2023-04-26T05:48:45;98642.94;;;11.91;100.00
20019;BME280;10170;42.502;26.526;2023-04-26T05:51:12;98651.88;;;11.85;100.00
20019;BME280;10170;42.502;26.526;2023-04-26T05:53:39;98644.63;;;11.81;100.00
20019;BME280;10170;42.502;26.526;2023-04-26T05:56:07;98642.63;;;11.88;100.00
20019;BME280;10170;42.502;26.526;2023-04-26T05:58:34;98647.69;;;11.89;100.00
20019;BME280;10170;42.502;26.526;2023-04-26T06:01:00;98646.31;;;11.87;100.00
20019;BME280;10170;42.502;26.526;2023-04-26T06:03:27;98630.72;;;11.79;100.00
20019;BME280;10170;42.502;26.526;2023-04-26T06:05:54;98643.44;;;11.88;100.00
20019;BME280;10170;42.502;26.526;2023-04-26T06:08:21;98641.88;;;11.92;100.00
20019;BME280;10170;42.502;26.526;2023-04-26T06:10:48;98642.78;;;11.98;100.00
20019;BME280;10170;42.502;26.526;2023-04-26T06:13:15;98644.41;;;11.99;100.00
20019;BME280;10170;42.502;26.526;2023-04-26T06:15:42;98640.38;;;11.96;100.00
20019;BME280;10170;42.502;26.526;2023-04-26T06:18:09;98646.44;;;11.92;100.00
20019;BME280;10170;42.502;26.526;2023-04-26T06:20:35;98647.31;;;11.97;100.00
20019;BME280;10170;42.502;26.526;2023-04-26T06:23:02;98640.94;;;11.98;100.00
20019;BME280;10170;42.502;26.526;2023-04-26T06:25:29;98642.53;;;11.99;100.00
20019;BME280;10170;42.502;26.526;2023-04-26T06:27:55;98645.78;;;12.01;100.00
20019;BME280;10170;42.502;26.526;2023-04-26T06:30:24;98638.06;;;12.16;100.00
20019;BME280;10170;42.502;26.526;2023-04-26T06:32:50;98637.75;;;12.13;100.00
20019;BME280;10170;42.502;26.526;2023-04-26T06:35:17;98631.53;;;12.24;100.00
20019;BME280;10170;42.502;26.526;2023-04-26T06:37:44;98634.22;;;12.24;100.00
20019;BME280;10170;42.502;26.526;2023-04-26T06:40:11;98632.44;;;12.29;100.00
20019;BME280;10170;42.502;26.526;2023-04-26T06:42:42;98635.88;;;12.30;100.00
20019;BME280;10170;42.502;26.526;2023-04-26T06:45:09;98638.72;;;12.23;100.00
20019;BME280;10170;42.502;26.526;2023-04-26T06:47:37;98633.97;;;12.25;100.00
20019;BME280;10170;42.502;26.526;2023-04-26T06:50:05;98634.44;;;12.22;100.00
20019;BME280;10170;42.502;26.526;2023-04-26T06:52:32;98638.56;;;12.13;100.00
20019;BME280;10170;42.502;26.526;2023-04-26T06:55:02;98648.88;;;12.26;100.00
20019;BME280;10170;42.502;26.526;2023-04-26T06:57:29;98651.56;;;12.10;100.00
20019;BME280;10170;42.502;26.526;2023-04-26T06:59:56;98645.56;;;12.19;100.00
20019;BME280;10170;42.502;26.526;2023-04-26T07:02:23;98650.31;;;12.17;100.00
20019;BME280;10170;42.502;26.526;2023-04-26T07:04:50;98661.16;;;12.11;100.00
20019;BME280;10170;42.502;26.526;2023-04-26T07:07:17;98656.97;;;12.15;100.00
20019;BME280;10170;42.502;26.526;2023-04-26T07:09:44;98668.41;;;11.99;100.00
20019;BME280;10170;42.502;26.526;2023-04-26T07:12:12;98672.13;;;12.14;100.00
20019;BME280;10170;42.502;26.526;2023-04-26T07:14:39;98667.53;;;12.26;100.00
20019;BME280;10170;42.502;26.526;2023-04-26T07:17:06;98676.53;;;12.20;100.00
20019;BME280;10170;42.502;26.526;2023-04-26T07:19:33;98674.63;;;12.21;100.00
20019;BME280;10170;42.502;26.526;2023-04-26T07:22:00;98667.16;;;12.34;100.00
20019;BME280;10170;42.502;26.526;2023-04-26T07:24:27;98657.78;;;12.48;100.00
20019;BME280;10170;42.502;26.526;2023-04-26T07:26:55;98662.25;;;12.59;100.00
20019;BME280;10170;42.502;26.526;2023-04-26T07:29:22;98663.94;;;12.49;100.00
20019;BME280;10170;42.502;26.526;2023-04-26T07:31:49;98659.66;;;12.48;100.00
20019;BME280;10170;42.502;26.526;2023-04-26T07:34:16;98658.75;;;12.59;100.00
20019;BME280;10170;42.502;26.526;2023-04-26T07:36:42;98627.19;;;12.51;100.00
20019;BME280;10170;42.502;26.526;2023-04-26T07:39:09;98648.09;;;12.92;100.00
20019;BME280;10170;42.502;26.526;2023-04-26T07:41:37;98639.22;;;12.70;100.00
20019;BME280;10170;42.502;26.526;2023-04-26T07:44:04;98633.38;;;12.73;100.00
20019;BME280;10170;42.502;26.526;2023-04-26T07:46:32;98635.06;;;12.96;100.00
20019;BME280;10170;42.502;26.526;2023-04-26T07:49:00;98641.56;;;12.66;100.00
20019;BME280;10170;42.502;26.526;2023-04-26T07:51:27;98656.50;;;12.67;100.00
20019;BME280;10170;42.502;26.526;2023-04-26T07:53:54;98646.41;;;12.69;100.00
20019;BME280;10170;42.502;26.526;2023-04-26T07:56:22;98651.16;;;12.34;100.00
20019;BME280;10170;42.502;26.526;2023-04-26T07:58:49;98658.91;;;12.19;100.00
20019;BME280;10170;42.502;26.526;2023-04-26T08:01:17;98649.00;;;12.31;100.00
20019;BME280;10170;42.502;26.526;2023-04-26T08:03:43;98641.81;;;12.48;100.00
20019;BME280;10170;42.502;26.526;2023-04-26T08:06:11;98656.66;;;12.78;100.00
20019;BME280;10170;42.502;26.526;2023-04-26T08:08:38;98657.69;;;12.77;100.00
20019;BME280;10170;42.502;26.526;2023-04-26T08:11:10;98651.72;;;12.69;100.00
20019;BME280;10170;42.502;26.526;2023-04-26T08:13:37;98665.44;;;12.95;100.00
20019;BME280;10170;42.502;26.526;2023-04-26T08:16:05;98671.69;;;12.84;100.00
20019;BME280;10170;42.502;26.526;2023-04-26T08:18:31;98671.59;;;13.12;100.00
20019;BME280;10170;42.502;26.526;2023-04-26T08:20:59;98682.88;;;13.57;100.00
20019;BME280;10170;42.502;26.526;2023-04-26T08:23:25;98697.53;;;13.76;100.00
20019;BME280;10170;42.502;26.526;2023-04-26T08:25:53;98698.31;;;13.98;100.00
20019;BME280;10170;42.502;26.526;2023-04-26T08:28:20;98702.22;;;14.12;100.00
20019;BME280;10170;42.502;26.526;2023-04-26T08:30:47;98684.28;;;14.34;100.00
20019;BME280;10170;42.502;26.526;2023-04-26T08:33:16;98721.59;;;14.77;100.00
20019;BME280;10170;42.502;26.526;2023-04-26T08:35:43;98732.44;;;14.93;100.00
20019;BME280;10170;42.502;26.526;2023-04-26T08:38:11;98740.09;;;15.16;100.00
20019;BME280;10170;42.502;26.526;2023-04-26T08:40:38;98742.09;;;15.35;100.00
20019;BME280;10170;42.502;26.526;2023-04-26T08:43:07;98756.38;;;16.03;100.00
20019;BME280;10170;42.502;26.526;2023-04-26T08:45:37;98759.69;;;16.25;100.00
20019;BME280;10170;42.502;26.526;2023-04-26T08:48:10;98759.53;;;16.56;100.00
20019;BME280;10170;42.502;26.526;2023-04-26T08:50:42;98766.03;;;16.96;100.00
20019;BME280;10170;42.502;26.526;2023-04-26T08:53:13;98769.22;;;16.93;100.00
20019;BME280;10170;42.502;26.526;2023-04-26T08:55:41;98773.53;;;16.63;100.00
20019;BME280;10170;42.502;26.526;2023-04-26T08:58:12;98762.25;;;16.97;100.00
20019;BME280;10170;42.502;26.526;2023-04-26T09:00:42;98768.41;;;17.52;100.00
20019;BME280;10170;42.502;26.526;2023-04-26T09:03:09;98778.38;;;17.27;100.00
20019;BME280;10170;42.502;26.526;2023-04-26T09:05:39;98779.69;;;17.39;100.00
20019;BME280;10170;42.502;26.526;2023-04-26T09:08:06;98779.91;;;17.83;100.00
20019;BME280;10170;42.502;26.526;2023-04-26T09:10:34;98784.00;;;18.34;100.00
20019;BME280;10170;42.502;26.526;2023-04-26T09:13:00;98786.38;;;18.89;100.00
20019;BME280;10170;42.502;26.526;2023-04-26T09:15:27;98785.69;;;19.46;100.00
20019;BME280;10170;42.502;26.526;2023-04-26T09:17:54;98789.50;;;19.07;100.00
20019;BME280;10170;42.502;26.526;2023-04-26T09:20:25;98802.78;;;19.60;100.00
20019;BME280;10170;42.502;26.526;2023-04-26T09:23:03;98792.00;;;18.98;100.00
20019;BME280;10170;42.502;26.526;2023-04-26T09:25:31;98790.00;;;18.75;100.00
20019;BME280;10170;42.502;26.526;2023-04-26T09:27:59;98790.81;;;19.09;100.00
20019;BME280;10170;42.502;26.526;2023-04-26T09:30:27;98780.16;;;18.50;100.00
20019;BME280;10170;42.502;26.526;2023-04-26T09:32:59;98793.13;;;17.74;100.00
20019;BME280;10170;42.502;26.526;2023-04-26T09:35:35;98789.56;;;17.89;100.00
20019;BME280;10170;42.502;26.526;2023-04-26T09:38:04;98795.22;;;17.82;100.00
20019;BME280;10170;42.502;26.526;2023-04-26T09:40:43;98781.13;;;18.11;100.00
20019;BME280;10170;42.502;26.526;2023-04-26T09:43:18;98792.50;;;18.61;100.00
20019;BME280;10170;42.502;26.526;2023-04-26T09:45:53;98789.00;;;19.00;100.00
20019;BME280;10170;42.502;26.526;2023-04-26T09:48:31;98778.41;;;18.74;100.00
20019;BME280;10170;42.502;26.526;2023-04-26T09:56:17;98773.66;;;19.62;100.00
20019;BME280;10170;42.502;26.526;2023-04-26T10:01:15;98771.69;;;18.72;100.00
20019;BME280;10170;42.502;26.526;2023-04-26T10:03:44;98781.22;;;18.54;100.00
20019;BME280;10170;42.502;26.526;2023-04-26T10:06:12;98773.25;;;18.29;100.00
20019;BME280;10170;42.502;26.526;2023-04-26T10:08:39;98776.03;;;18.09;100.00
20019;BME280;10170;42.502;26.526;2023-04-26T10:11:06;98776.75;;;18.83;100.00
20019;BME280;10170;42.502;26.526;2023-04-26T10:13:34;98757.69;;;18.75;100.00
20019;BME280;10170;42.502;26.526;2023-04-26T10:16:01;98770.97;;;19.34;100.00
20019;BME280;10170;42.502;26.526;2023-04-26T10:18:30;98767.09;;;19.92;96.54
20019;BME280;10170;42.502;26.526;2023-04-26T10:21:06;98763.34;;;19.93;98.10
20019;BME280;10170;42.502;26.526;2023-04-26T10:23:36;98752.75;;;19.49;100.00
20019;BME280;10170;42.502;26.526;2023-04-26T10:26:04;98753.09;;;19.43;100.00
20019;BME280;10170;42.502;26.526;2023-04-26T10:31:06;98741.94;;;20.94;81.36
20019;BME280;10170;42.502;26.526;2023-04-26T10:33:33;98753.72;;;20.66;82.96
20019;BME280;10170;42.502;26.526;2023-04-26T10:38:30;98736.53;;;20.94;77.30
20019;BME280;10170;42.502;26.526;2023-04-26T10:44:00;98735.59;;;20.67;81.01
20019;BME280;10170;42.502;26.526;2023-04-26T10:46:50;98729.09;;;20.86;77.37
20019;BME280;10170;42.502;26.526;2023-04-26T10:49:20;98717.75;;;21.49;73.74
20019;BME280;10170;42.502;26.526;2023-04-26T10:52:13;98728.84;;;21.79;72.16
20019;BME280;10170;42.502;26.526;2023-04-26T10:54:55;98716.41;;;22.41;69.28
20019;BME280;10170;42.502;26.526;2023-04-26T10:57:45;98719.16;;;22.28;67.41
20019;BME280;10170;42.502;26.526;2023-04-26T11:02:50;98717.28;;;20.82;81.62
20019;BME280;10170;42.502;26.526;2023-04-26T11:06:01;98718.22;;;20.17;80.61
20019;BME280;10170;42.502;26.526;2023-04-26T11:08:31;98716.94;;;18.48;96.01
20019;BME280;10170;42.502;26.526;2023-04-26T11:11:06;98714.38;;;17.44;100.00
20019;BME280;10170;42.502;26.526;2023-04-26T11:13:41;98713.88;;;17.27;100.00
20019;BME280;10170;42.502;26.526;2023-04-26T11:16:13;98716.16;;;18.37;100.00
20019;BME280;10170;42.502;26.526;2023-04-26T11:18:43;98713.97;;;19.69;95.24
20019;BME280;10170;42.502;26.526;2023-04-26T11:21:10;98709.41;;;20.67;83.78
20019;BME280;10170;42.502;26.526;2023-04-26T11:23:39;98710.63;;;21.26;85.86
20019;BME280;10170;42.502;26.526;2023-04-26T11:26:07;98717.31;;;20.45;84.56
20019;BME280;10170;42.502;26.526;2023-04-26T11:28:36;98712.03;;;20.17;86.53
20019;BME280;10170;42.502;26.526;2023-04-26T11:31:04;98713.59;;;19.99;86.94
20019;BME280;10170;42.502;26.526;2023-04-26T11:33:32;98709.97;;;19.38;91.85
20019;BME280;10170;42.502;26.526;2023-04-26T11:36:02;98717.63;;;19.54;93.93
20019;BME280;10170;42.502;26.526;2023-04-26T11:38:29;98710.72;;;19.43;100.00
20019;BME280;10170;42.502;26.526;2023-04-26T11:43:39;98710.41;;;18.92;100.00
20019;BME280;10170;42.502;26.526;2023-04-26T11:46:07;98707.06;;;19.58;100.00
20019;BME280;10170;42.502;26.526;2023-04-26T11:48:36;98705.78;;;19.74;100.00
20019;BME280;10170;42.502;26.526;2023-04-26T11:51:04;98711.50;;;20.70;87.46
20019;BME280;10170;42.502;26.526;2023-04-26T11:53:37;98718.75;;;20.75;81.42
20019;BME280;10170;42.502;26.526;2023-04-26T11:56:12;98718.22;;;20.17;81.70
20019;BME280;10170;42.502;26.526;2023-04-26T11:58:48;98722.66;;;19.37;90.67
20019;BME280;10170;42.502;26.526;2023-04-26T12:03:52;98708.16;;;18.71;100.00
20019;BME280;10170;42.502;26.526;2023-04-26T12:06:25;98713.81;;;18.69;100.00
20019;BME280;10170;42.502;26.526;2023-04-26T12:08:55;98711.47;;;18.91;100.00
20019;BME280;10170;42.502;26.526;2023-04-26T12:11:22;98709.88;;;18.57;99.42
20019;BME280;10170;42.502;26.526;2023-04-26T12:13:49;98711.44;;;18.19;100.00
20019;BME280;10170;42.502;26.526;2023-04-26T12:16:16;98713.91;;;18.54;100.00
20019;BME280;10170;42.502;26.526;2023-04-26T12:18:49;98708.44;;;18.64;100.00
20019;BME280;10170;42.502;26.526;2023-04-26T12:21:18;98715.50;;;18.55;100.00
20019;BME280;10170;42.502;26.526;2023-04-26T12:23:45;98701.94;;;18.32;100.00
20019;BME280;10170;42.502;26.526;2023-04-26T12:26:15;98710.47;;;19.16;88.19
20019;BME280;10170;42.502;26.526;2023-04-26T12:28:42;98703.44;;;19.15;97.19
20019;BME280;10170;42.502;26.526;2023-04-26T12:31:09;98697.25;;;19.15;98.61
20019;BME280;10170;42.502;26.526;2023-04-26T12:33:36;98699.09;;;19.19;100.00
20019;BME280;10170;42.502;26.526;2023-04-26T12:36:08;98695.34;;;19.15;100.00
20019;BME280;10170;42.502;26.526;2023-04-26T12:39:02;98695.19;;;19.35;94.05
20019;BME280;10170;42.502;26.526;2023-04-26T12:41:31;98684.63;;;19.39;98.85
20019;BME280;10170;42.502;26.526;2023-04-26T12:43:57;98676.88;;;19.04;97.46
20019;BME280;10170;42.502;26.526;2023-04-26T12:46:24;98679.84;;;19.31;98.58
20019;BME280;10170;42.502;26.526;2023-04-26T12:48:52;98667.34;;;19.40;92.25
20019;BME280;10170;42.502;26.526;2023-04-26T12:51:19;98680.81;;;19.45;98.78
20019;BME280;10170;42.502;26.526;2023-04-26T12:53:45;98678.66;;;19.42;100.00
20019;BME280;10170;42.502;26.526;2023-04-26T12:56:12;98684.00;;;19.47;98.81
20019;BME280;10170;42.502;26.526;2023-04-26T12:58:40;98673.56;;;19.12;100.00
20019;BME280;10170;42.502;26.526;2023-04-26T13:01:07;98670.81;;;18.88;100.00
20019;BME280;10170;42.502;26.526;2023-04-26T13:03:34;98674.41;;;18.40;100.00
20019;BME280;10170;42.502;26.526;2023-04-26T13:06:02;98677.31;;;18.53;100.00
20019;BME280;10170;42.502;26.526;2023-04-26T13:08:29;98675.03;;;18.70;100.00
20019;BME280;10170;42.502;26.526;2023-04-26T13:10:55;98677.72;;;18.99;100.00